Time;durP1;ratioP1;P1;durP2;ratioP2;P2;SDS_P1;SDS_P2;PMS_P1;PMS_P2;Temp;Humidity;BMP_temperature;BMP_pressure;BME280_temperature;BME280_humidity;BME280_pressure;Samples;Min_cycle;Max_cycle;Signal;HPM_P1;HPM_P2
2023/03/05 00:01:39;;;;;;;3.30;1.77;;;1.70;99.90;;;;;;8367895;28;20197;-68
2023/03/05 00:05:40;;;;;;;4.87;2.00;;;1.70;99.90;;;;;;8363514;28;20244;-68
2023/03/05 00:09:40;;;;;;;40.40;17.00;;;1.60;99.90;;;;;;8367529;28;20181;-67
2023/03/05 00:13:42;;;;;;;16.00;7.50;;;1.50;99.90;;;;;;8363790;28;20243;-69
2023/03/05 00:17:43;;;;;;;5.03;1.80;;;1.40;99.90;;;;;;8366534;28;20186;-68
2023/03/05 00:21:44;;;;;;;33.07;13.30;;;1.40;99.90;;;;;;8366963;28;20236;-68
2023/03/05 00:25:45;;;;;;;4.10;2.43;;;1.30;1.00;;;;;;8367478;28;20258;-68
2023/03/05 00:29:46;;;;;;;3.77;1.93;;;1.30;1.00;;;;;;8367494;28;20213;-69
2023/03/05 00:33:54;;;;;;;5.60;1.97;;;1.30;1.00;;;;;;8363776;28;20247;-68
2023/03/05 00:37:56;;;;;;;10.23;1.93;;;1.20;1.00;;;;;;8369615;28;20216;-68
2023/03/05 00:41:57;;;;;;;5.00;2.00;;;1.10;1.00;;;;;;8377561;28;20245;-68
2023/03/05 00:45:57;;;;;;;3.37;1.43;;;1.10;1.00;;;;;;8364933;28;20209;-69
2023/03/05 00:49:58;;;;;;;4.30;1.67;;;1.00;1.00;;;;;;8361820;28;20194;-68
2023/03/05 00:53:59;;;;;;;6.80;1.40;;;1.00;1.00;;;;;;8361703;28;20212;-68
2023/03/05 00:58:00;;;;;;;2.87;1.30;;;1.00;1.00;;;;;;8365447;28;20275;-68
2023/03/05 01:02:01;;;;;;;24.70;8.07;;;0.90;1.00;;;;;;8366207;28;20269;-67
2023/03/05 01:06:11;;;;;;;4.37;1.33;;;0.90;1.00;;;;;;8375352;28;20209;-67
2023/03/05 01:10:13;;;;;;;11.77;4.80;;;0.80;1.00;;;;;;8362095;28;20812;-67
2023/03/05 01:14:13;;;;;;;5.67;2.70;;;0.80;1.00;;;;;;8359330;28;20189;-67
2023/03/05 01:18:14;;;;;;;7.23;4.30;;;0.80;1.00;;;;;;8364915;28;20279;-68
2023/03/05 01:22:15;;;;;;;7.97;3.90;;;0.80;1.00;;;;;;8362755;28;20292;-67
2023/03/05 01:26:16;;;;;;;6.10;2.40;;;0.80;1.00;;;;;;8364995;28;20246;-68
2023/03/05 01:30:17;;;;;;;4.13;1.83;;;0.70;99.90;;;;;;8361624;28;20231;-68
2023/03/05 01:34:18;;;;;;;3.20;1.30;;;0.70;99.90;;;;;;8360358;28;20185;-68
2023/03/05 01:38:19;;;;;;;4.00;1.40;;;0.70;1.00;;;;;;8361487;28;20255;-68
2023/03/05 01:42:20;;;;;;;2.53;1.07;;;0.70;1.00;;;;;;8362862;28;20200;-68
2023/03/05 01:46:30;;;;;;;1.77;0.80;;;0.70;1.00;;;;;;8361926;28;20221;-68
2023/03/05 01:50:31;;;;;;;2.57;1.10;;;0.70;1.00;;;;;;8359392;28;20276;-68
2023/03/05 01:54:39;;;;;;;2.33;0.90;;;0.70;1.00;;;;;;8360578;28;20201;-68
2023/03/05 01:58:40;;;;;;;1.67;0.70;;;0.70;1.00;;;;;;8362890;28;20193;-67
2023/03/05 02:02:43;;;;;;;2.03;0.80;;;0.70;1.00;;;;;;8357350;28;20188;-69
2023/03/05 02:06:45;;;;;;;2.43;0.80;;;0.70;1.00;;;;;;8363929;28;20178;-67
2023/03/05 02:10:53;;;;;;;4.30;1.00;;;0.70;1.00;;;;;;8365167;28;20190;-68
2023/03/05 02:14:58;;;;;;;2.07;0.70;;;0.70;1.00;;;;;;8362659;28;20182;-67
2023/03/05 02:18:58;;;;;;;2.90;1.20;;;0.70;1.00;;;;;;8360133;28;20189;-68
2023/03/05 02:22:59;;;;;;;4.57;1.73;;;0.70;1.00;;;;;;8374262;28;20458;-68
2023/03/05 02:27:02;;;;;;;1.90;1.33;;;0.70;1.00;;;;;;8373872;28;20178;-68
2023/03/05 02:31:28;;;;;;;4.20;1.60;;;0.70;1.00;;;;;;8362407;28;20181;-68
2023/03/05 02:35:29;;;;;;;2.67;1.27;;;0.70;1.00;;;;;;8360079;28;20249;-68
2023/03/05 02:39:30;;;;;;;2.07;1.07;;;0.80;1.00;;;;;;8359415;28;20182;-68
2023/03/05 02:43:31;;;;;;;3.90;1.10;;;0.80;1.00;;;;;;8360111;28;20275;-68
2023/03/05 02:47:32;;;;;;;2.37;1.30;;;0.80;1.00;;;;;;8360251;28;20186;-67
2023/03/05 02:51:33;;;;;;;3.70;1.47;;;0.80;1.00;;;;;;8358349;28;20193;-67
2023/03/05 02:55:34;;;;;;;2.07;1.37;;;0.80;1.00;;;;;;8361150;28;20208;-67
2023/03/05 02:59:35;;;;;;;2.13;0.93;;;0.70;1.00;;;;;;8360745;28;20242;-67
2023/03/05 03:03:36;;;;;;;3.13;1.20;;;0.70;1.00;;;;;;8366743;28;20224;-68
2023/03/05 03:07:37;;;;;;;2.20;1.20;;;0.60;1.00;;;;;;8361525;28;20189;-68
2023/03/05 03:11:38;;;;;;;3.73;1.30;;;0.60;1.00;;;;;;8370155;28;20236;-67
2023/03/05 03:15:39;;;;;;;2.00;1.00;;;0.60;1.00;;;;;;8366867;28;20207;-67
2023/03/05 03:19:40;;;;;;;3.87;1.30;;;0.60;1.00;;;;;;8365432;28;20243;-68
2023/03/05 03:23:41;;;;;;;5.30;1.67;;;0.60;1.00;;;;;;8365027;28;20217;-68
2023/03/05 03:27:42;;;;;;;3.40;1.30;;;0.70;1.00;;;;;;8366403;28;20184;-68
2023/03/05 03:31:44;;;;;;;5.60;1.90;;;0.70;1.00;;;;;;8365361;28;20185;-68
2023/03/05 03:35:45;;;;;;;5.83;1.90;;;0.80;1.00;;;;;;8364476;28;20216;-68
2023/03/05 03:39:46;;;;;;;5.67;2.23;;;0.90;1.00;;;;;;8367834;28;20196;-67
2023/03/05 03:43:47;;;;;;;7.70;1.90;;;0.90;19.40;;;;;;8364653;28;20201;-68
2023/03/05 03:47:49;;;;;;;9.93;2.97;;;0.90;49.90;;;;;;8366105;28;20279;-68
2023/03/05 03:51:53;;;;;;;5.90;2.17;;;1.00;99.90;;;;;;8369601;28;20396;-68
2023/03/05 03:55:57;;;;;;;10.93;2.50;;;1.00;99.90;;;;;;8364570;28;20185;-67
2023/03/05 03:59:58;;;;;;;6.83;2.30;;;1.00;99.90;;;;;;8363241;28;20197;-67
2023/03/05 04:04:00;;;;;;;8.00;2.57;;;1.00;99.90;;;;;;8363124;28;20209;-68
2023/03/05 04:08:00;;;;;;;10.73;2.23;;;1.10;99.90;;;;;;8369202;28;20181;-68
2023/03/05 04:12:01;;;;;;;7.80;2.73;;;1.10;99.90;;;;;;8364583;28;20190;-68
2023/03/05 04:16:03;;;;;;;9.37;2.53;;;1.10;99.90;;;;;;8365103;28;20197;-69
2023/03/05 04:20:07;;;;;;;9.63;2.77;;;1.20;99.90;;;;;;8369069;28;20249;-68
2023/03/05 04:24:08;;;;;;;8.17;2.93;;;1.20;99.90;;;;;;8358869;28;20213;-69
2023/03/05 04:28:09;;;;;;;10.80;3.50;;;1.20;1.00;;;;;;8366983;28;20189;-69
2023/03/05 04:32:09;;;;;;;12.27;3.17;;;1.20;1.00;;;;;;8364321;28;20184;-68
2023/03/05 04:36:10;;;;;;;12.60;3.73;;;1.30;1.00;;;;;;8368651;28;20194;-67
2023/03/05 04:40:11;;;;;;;13.10;3.70;;;1.30;99.90;;;;;;8366898;28;20182;-68
2023/03/05 04:44:12;;;;;;;11.00;3.77;;;1.40;99.90;;;;;;8369447;28;20355;-69
2023/03/05 04:48:13;;;;;;;13.97;3.93;;;1.40;99.90;;;;;;8361131;28;20190;-69
2023/03/05 04:52:14;;;;;;;9.20;3.37;;;1.40;8.50;;;;;;8362069;28;20196;-69
2023/03/05 04:56:15;;;;;;;19.57;3.57;;;1.40;42.10;;;;;;8366552;28;20192;-68
2023/03/05 05:00:16;;;;;;;9.60;2.47;;;1.40;90.80;;;;;;8361930;28;20223;-68
2023/03/05 05:04:17;;;;;;;11.10;3.17;;;1.40;99.90;;;;;;8364326;28;20209;-66
2023/03/05 05:08:18;;;;;;;9.03;3.07;;;1.20;99.90;;;;;;8366505;28;20174;-69
2023/03/05 05:12:19;;;;;;;12.63;2.80;;;1.10;99.90;;;;;;8359269;28;20196;-69
2023/03/05 05:16:20;;;;;;;8.93;2.60;;;1.10;99.90;;;;;;8360046;28;20182;-69
2023/03/05 05:20:21;;;;;;;11.03;2.73;;;1.10;99.90;;;;;;8361669;28;20236;-69
2023/03/05 05:24:21;;;;;;;9.60;2.90;;;1.10;41.70;;;;;;8364318;28;20245;-68
2023/03/05 05:28:22;;;;;;;10.83;2.20;;;1.10;1.00;;;;;;8363558;28;20181;-69
2023/03/05 05:32:23;;;;;;;9.57;2.30;;;1.00;1.00;;;;;;8366706;28;20181;-70
2023/03/05 05:36:24;;;;;;;9.33;2.30;;;1.00;1.00;;;;;;8362147;28;20209;-69
2023/03/05 05:40:25;;;;;;;8.37;1.90;;;1.10;1.00;;;;;;8363945;28;20625;-68
2023/03/05 05:44:26;;;;;;;8.50;1.83;;;1.10;1.00;;;;;;8360257;28;20226;-73
2023/03/05 05:48:31;;;;;;;9.20;2.10;;;1.10;1.00;;;;;;8369296;28;20188;-73
2023/03/05 05:52:32;;;;;;;6.67;1.83;;;1.20;1.00;;;;;;8366956;28;20207;-73
2023/03/05 05:56:33;;;;;;;7.03;2.10;;;1.20;99.90;;;;;;8363394;28;20185;-72
2023/03/05 06:00:34;;;;;;;10.40;1.80;;;1.20;99.90;;;;;;8365760;28;20185;-72
2023/03/05 06:04:35;;;;;;;4.60;1.43;;;1.20;99.90;;;;;;8362132;28;20208;-73
2023/03/05 06:08:36;;;;;;;6.50;1.20;;;1.20;99.90;;;;;;8367426;28;20291;-72
2023/03/05 06:12:37;;;;;;;10.30;2.50;;;1.10;99.90;;;;;;8361370;28;20177;-73
2023/03/05 06:16:39;;;;;;;6.37;1.83;;;1.10;99.90;;;;;;8365102;28;20187;-72
2023/03/05 06:20:39;;;;;;;7.37;2.20;;;1.10;99.90;;;;;;8363574;28;20212;-72
2023/03/05 06:24:40;;;;;;;2.10;1.03;;;1.10;99.90;;;;;;8359579;28;20608;-74
2023/03/05 06:28:41;;;;;;;3.17;1.10;;;1.10;99.90;;;;;;8367517;28;20181;-72
2023/03/05 06:32:42;;;;;;;5.00;1.30;;;1.10;99.90;;;;;;8365634;28;20177;-73
2023/03/05 06:36:43;;;;;;;5.27;1.70;;;1.10;99.90;;;;;;8367229;28;20271;-72
2023/03/05 06:40:43;;;;;;;6.67;1.43;;;1.10;99.90;;;;;;8363516;28;20173;-74
2023/03/05 06:44:45;;;;;;;7.33;1.27;;;1.00;99.90;;;;;;8368955;28;20224;-73
2023/03/05 06:48:46;;;;;;;3.33;1.13;;;1.00;99.90;;;;;;8367058;28;20528;-73
2023/03/05 06:52:50;;;;;;;2.40;1.00;;;0.90;99.90;;;;;;8365445;28;20431;-73
2023/03/05 06:56:51;;;;;;;4.03;1.20;;;0.90;99.90;;;;;;8369674;28;20182;-73
2023/03/05 07:00:52;;;;;;;5.40;1.30;;;0.80;99.90;;;;;;8371540;28;20212;-72
2023/03/05 07:04:52;;;;;;;4.53;1.37;;;0.80;99.90;;;;;;8368701;28;20220;-74
2023/03/05 07:08:55;;;;;;;6.93;1.37;;;0.80;99.90;;;;;;8366767;28;20189;-74
2023/03/05 07:12:55;;;;;;;5.97;1.23;;;0.70;1.00;;;;;;8365661;28;20231;-72
2023/03/05 07:16:56;;;;;;;4.07;1.23;;;0.70;1.00;;;;;;8369600;28;20260;-72
2023/03/05 07:21:04;;;;;;;4.90;1.40;;;0.80;1.00;;;;;;8368644;28;20209;-73
2023/03/05 07:25:06;;;;;;;3.17;1.03;;;0.80;1.00;;;;;;8367147;28;20219;-73
2023/03/05 07:29:06;;;;;;;8.47;1.60;;;0.80;1.00;;;;;;8374772;28;20182;-72
2023/03/05 07:33:07;;;;;;;6.00;1.27;;;0.70;1.00;;;;;;8364326;28;20238;-73
2023/03/05 07:37:08;;;;;;;7.50;1.70;;;0.60;99.90;;;;;;8371506;28;20209;-73
2023/03/05 07:41:12;;;;;;;6.20;1.23;;;0.50;99.90;;;;;;8365950;28;20307;-73
2023/03/05 07:45:13;;;;;;;4.43;1.83;;;0.50;1.00;;;;;;8367566;28;20201;-73
2023/03/05 07:49:14;;;;;;;4.80;1.10;;;0.60;16.10;;;;;;8364045;28;20177;-72
2023/03/05 07:53:15;;;;;;;5.73;1.10;;;0.70;1.00;;;;;;8372325;28;20178;-73
2023/03/05 07:57:16;;;;;;;4.93;1.60;;;0.90;99.90;;;;;;8366634;28;20188;-74
2023/03/05 08:01:19;;;;;;;4.77;1.77;;;1.10;99.90;;;;;;8366980;28;20189;-72
2023/03/05 08:05:20;;;;;;;4.97;1.30;;;1.20;4.90;;;;;;8366792;28;20277;-74
2023/03/05 08:09:21;;;;;;;3.73;1.10;;;1.20;1.00;;;;;;8370282;28;20209;-73
2023/03/05 08:13:21;;;;;;;5.07;1.37;;;1.40;99.90;;;;;;8372211;28;20193;-72
2023/03/05 08:17:22;;;;;;;3.83;1.23;;;1.50;99.90;;;;;;8366910;28;20535;-72
2023/03/05 08:21:32;;;;;;;3.70;1.27;;;1.70;99.90;;;;;;8366785;28;20858;-72
2023/03/05 08:25:33;;;;;;;5.80;2.03;;;1.90;99.90;;;;;;8370982;28;20244;-71
2023/03/05 08:29:34;;;;;;;4.93;1.57;;;2.20;99.90;;;;;;8364120;28;20177;-72
2023/03/05 08:33:35;;;;;;;4.80;1.77;;;2.50;99.90;;;;;;8365676;28;20204;-71
2023/03/05 08:37:36;;;;;;;5.60;1.77;;;2.80;99.90;;;;;;8364278;28;20213;-71
2023/03/05 08:41:37;;;;;;;5.57;1.70;;;2.50;99.90;;;;;;8377902;28;20216;-72
2023/03/05 08:45:38;;;;;;;3.57;1.47;;;2.60;99.90;;;;;;8365292;28;20209;-72
2023/03/05 08:49:39;;;;;;;3.43;1.70;;;2.70;99.90;;;;;;8363700;28;20195;-71
2023/03/05 08:53:42;;;;;;;2.87;1.30;;;3.00;99.90;;;;;;8369355;28;20192;-71
2023/03/05 08:57:43;;;;;;;8.63;1.57;;;2.90;99.90;;;;;;8373520;28;20185;-71
2023/03/05 09:01:43;;;;;;;2.73;1.23;;;2.90;99.90;;;;;;8366801;28;20192;-71
2023/03/05 09:05:46;;;;;;;1.90;1.20;;;2.90;99.90;;;;;;8371350;28;20209;-71
2023/03/05 09:09:46;;;;;;;3.80;1.37;;;2.70;99.90;;;;;;8363824;28;20181;-71
2023/03/05 09:13:47;;;;;;;4.47;1.30;;;2.60;99.90;;;;;;8369125;28;20189;-72
2023/03/05 09:17:48;;;;;;;2.87;1.97;;;2.70;99.90;;;;;;8367631;28;20185;-73
2023/03/05 09:21:49;;;;;;;3.37;1.60;;;3.00;99.90;;;;;;8368543;28;20186;-73
2023/03/05 09:25:50;;;;;;;5.67;1.67;;;3.20;99.90;;;;;;8366013;28;20530;-72
2023/03/05 09:29:52;;;;;;;3.63;2.00;;;3.40;99.90;;;;;;8368695;28;20247;-72
2023/03/05 09:33:53;;;;;;;4.53;1.90;;;3.20;99.90;;;;;;8364984;28;20288;-71
2023/03/05 09:37:54;;;;;;;2.47;1.60;;;3.30;99.90;;;;;;8363411;28;20243;-72
2023/03/05 09:42:00;;;;;;;6.13;1.83;;;3.50;99.90;;;;;;8368738;28;20208;-72
2023/03/05 09:46:34;;;;;;;4.10;1.77;;;3.50;99.90;;;;;;8362155;28;20209;-72
2023/03/05 09:50:58;;;;;;;4.30;2.33;;;3.50;99.90;;;;;;8367075;28;20177;-74
2023/03/05 09:54:59;;;;;;;4.53;1.87;;;3.50;99.90;;;;;;8364387;28;20188;-72
2023/03/05 09:59:20;;;;;;;5.03;2.27;;;3.30;99.90;;;;;;8370398;28;20192;-71
2023/03/05 10:03:27;;;;;;;6.40;2.07;;;3.10;99.90;;;;;;8367501;28;20238;-73
2023/03/05 10:07:27;;;;;;;4.30;2.20;;;3.30;99.90;;;;;;8363179;28;20186;-71
2023/03/05 10:11:39;;;;;;;2.73;1.57;;;3.30;99.90;;;;;;8363658;28;20185;-73
2023/03/05 10:15:50;;;;;;;4.37;2.20;;;3.50;99.90;;;;;;8375762;28;20692;-71
2023/03/05 10:20:03;;;;;;;3.37;2.37;;;3.80;99.90;;;;;;8371966;28;20195;-72
2023/03/05 10:24:27;;;;;;;5.10;2.40;;;4.30;99.90;;;;;;8376458;28;20233;-73
2023/03/05 10:28:39;;;;;;;3.53;1.50;;;4.40;94.60;;;;;;8376078;28;20195;-72
2023/03/05 10:32:46;;;;;;;3.53;1.90;;;4.60;86.10;;;;;;8368358;28;20246;-72
2023/03/05 10:36:59;;;;;;;3.77;1.67;;;4.20;81.50;;;;;;8370691;28;20205;-72
2023/03/05 10:41:22;;;;;;;4.37;1.60;;;4.30;80.30;;;;;;8371772;28;20190;-72
2023/03/05 10:45:42;;;;;;;4.33;1.30;;;4.60;84.80;;;;;;8370167;28;20276;-71
2023/03/05 10:49:53;;;;;;;2.37;1.33;;;4.60;51.10;;;;;;8366982;28;20174;-73
2023/03/05 10:53:55;;;;;;;2.60;1.03;;;4.70;38.90;;;;;;8368956;28;20191;-73
2023/03/05 10:57:56;;;;;;;3.40;1.20;;;4.90;32.20;;;;;;8370550;28;20192;-72
2023/03/05 11:02:03;;;;;;;3.27;1.10;;;4.90;26.20;;;;;;8367217;28;20220;-73
2023/03/05 11:06:04;;;;;;;2.23;0.80;;;4.90;31.50;;;;;;8369522;28;20300;-71
2023/03/05 11:10:17;;;;;;;7.23;1.30;;;4.60;21.50;;;;;;8366337;28;20181;-73
2023/03/05 11:14:32;;;;;;;2.13;0.90;;;4.50;35.90;;;;;;8372945;28;20499;-73
2023/03/05 11:18:33;;;;;;;2.07;1.00;;;5.00;33.80;;;;;;8380276;28;20181;-72
2023/03/05 11:22:34;;;;;;;0.93;0.70;;;5.60;31.90;;;;;;8367582;28;20182;-72
2023/03/05 11:26:35;;;;;;;1.53;0.87;;;5.00;12.90;;;;;;8365681;28;20247;-72
2023/03/05 11:30:37;;;;;;;3.03;1.10;;;4.50;18.40;;;;;;8378838;28;20276;-71
2023/03/05 11:34:37;;;;;;;1.53;0.90;;;4.20;29.40;;;;;;8366934;28;20217;-73
2023/03/05 11:38:53;;;;;;;0.60;0.60;;;4.50;51.60;;;;;;8384062;28;20181;-73
2023/03/05 11:42:57;;;;;;;2.70;1.00;;;4.90;40.30;;;;;;8366741;28;20207;-73
2023/03/05 11:47:12;;;;;;;1.13;0.70;;;4.50;31.20;;;;;;8370186;28;20180;-71
2023/03/05 11:51:39;;;;;;;1.30;1.00;;;4.40;41.80;;;;;;8366107;28;20184;-74
2023/03/05 11:55:47;;;;;;;2.80;0.90;;;4.20;34.60;;;;;;8363537;28;20216;-72
2023/03/05 11:59:50;;;;;;;2.70;1.00;;;4.30;52.30;;;;;;8363338;28;20181;-72
2023/03/05 12:03:52;;;;;;;1.87;1.00;;;4.60;29.20;;;;;;8366889;28;20196;-72
2023/03/05 12:07:57;;;;;;;3.17;1.17;;;4.80;28.50;;;;;;8365767;28;20184;-73
2023/03/05 12:12:24;;;;;;;4.27;0.80;;;4.70;32.10;;;;;;8364660;28;20271;-72
2023/03/05 12:17:02;;;;;;;1.40;0.80;;;4.70;25.00;;;;;;8366873;28;20393;-73
2023/03/05 12:21:28;;;;;;;2.10;1.20;;;4.40;25.60;;;;;;8366802;28;20189;-72
2023/03/05 12:25:53;;;;;;;1.60;1.20;;;3.40;72.10;;;;;;8365825;28;20217;-71
2023/03/05 12:29:54;;;;;;;1.03;0.80;;;2.20;99.90;;;;;;8367007;28;20185;-72
2023/03/05 12:33:55;;;;;;;1.87;1.23;;;1.70;99.90;;;;;;8362691;28;20189;-71
2023/03/05 12:37:59;;;;;;;1.80;0.90;;;1.70;99.90;;;;;;8367022;28;20239;-71
2023/03/05 12:42:00;;;;;;;2.70;1.30;;;1.90;99.90;;;;;;8369251;28;20193;-72
2023/03/05 12:46:43;;;;;;;1.67;1.17;;;2.20;99.90;;;;;;8370175;28;20251;-71
2023/03/05 12:50:43;;;;;;;1.80;1.37;;;2.50;99.90;;;;;;8353814;28;20228;-72
2023/03/05 12:55:18;;;;;;;3.20;1.00;;;2.70;99.90;;;;;;8361136;28;20189;-73
2023/03/05 12:59:23;;;;;;;2.47;1.00;;;3.00;99.90;;;;;;8369080;28;20234;-73
2023/03/05 13:03:30;;;;;;;6.80;1.10;;;3.20;99.90;;;;;;8362951;28;20213;-74
2023/03/05 13:07:30;;;;;;;3.23;1.20;;;3.30;99.90;;;;;;8364278;28;20189;-71
2023/03/05 13:11:36;;;;;;;3.03;1.07;;;3.30;99.90;;;;;;8362262;28;20185;-71
2023/03/05 13:15:38;;;;;;;2.07;1.27;;;3.30;99.90;;;;;;8362591;28;20214;-72
2023/03/05 13:19:40;;;;;;;1.47;0.80;;;3.50;99.90;;;;;;8366684;28;20193;-73
2023/03/05 13:23:56;;;;;;;3.17;0.90;;;3.60;99.90;;;;;;8364573;28;20214;-73
2023/03/05 13:28:14;;;;;;;2.33;1.03;;;3.70;99.90;;;;;;8379585;28;20180;-71
2023/03/05 13:32:30;;;;;;;3.03;0.90;;;3.90;99.90;;;;;;8364322;28;20188;-73
2023/03/05 13:36:32;;;;;;;2.13;0.97;;;4.00;99.90;;;;;;8361082;28;20272;-72
2023/03/05 13:40:33;;;;;;;1.00;0.50;;;4.00;99.90;;;;;;8363710;28;20200;-72
2023/03/05 13:44:34;;;;;;;1.47;0.77;;;4.10;98.60;;;;;;8363071;28;20252;-72
2023/03/05 13:48:35;;;;;;;1.20;0.70;;;4.20;92.00;;;;;;8363222;28;20192;-72
2023/03/05 13:52:37;;;;;;;1.90;0.70;;;4.20;82.20;;;;;;8362418;28;20184;-73
2023/03/05 13:56:51;;;;;;;1.03;0.60;;;4.10;66.90;;;;;;8364255;28;20189;-75
2023/03/05 14:01:04;;;;;;;2.23;0.60;;;3.80;62.50;;;;;;8365266;28;20198;-73
2023/03/05 14:05:14;;;;;;;1.50;0.70;;;3.80;62.80;;;;;;8366951;28;20278;-74
2023/03/05 14:09:23;;;;;;;1.90;0.50;;;3.80;69.40;;;;;;8367131;28;20188;-73
2023/03/05 14:13:28;;;;;;;0.90;0.60;;;3.90;73.20;;;;;;8368138;28;20192;-74
2023/03/05 14:17:40;;;;;;;1.67;0.70;;;4.10;77.80;;;;;;8366612;28;20279;-72
2023/03/05 14:21:44;;;;;;;1.50;0.70;;;4.30;78.60;;;;;;8373647;28;20186;-72
2023/03/05 14:25:45;;;;;;;2.43;0.70;;;4.20;84.20;;;;;;8365546;28;20240;-72
2023/03/05 14:29:46;;;;;;;3.77;0.70;;;4.10;95.00;;;;;;8373737;28;20255;-72
2023/03/05 14:33:48;;;;;;;2.77;0.87;;;4.20;99.90;;;;;;8365907;28;20196;-73
2023/03/05 14:37:51;;;;;;;1.20;0.90;;;4.20;99.90;;;;;;8366737;28;20216;-73
2023/03/05 14:41:52;;;;;;;2.03;0.90;;;4.00;99.90;;;;;;8363555;28;20202;-73
2023/03/05 14:45:53;;;;;;;1.90;0.83;;;3.80;99.90;;;;;;8360122;28;20278;-72
2023/03/05 14:49:54;;;;;;;1.57;0.83;;;3.70;99.90;;;;;;8365631;28;20190;-72
2023/03/05 14:53:57;;;;;;;2.27;1.03;;;3.60;99.90;;;;;;8364583;28;20271;-73
2023/03/05 14:58:12;;;;;;;4.10;1.03;;;3.60;99.90;;;;;;8374977;28;20195;-72
2023/03/05 15:02:16;;;;;;;1.97;1.10;;;3.60;99.90;;;;;;8375751;28;20198;-73
2023/03/05 15:06:23;;;;;;;2.43;0.93;;;3.40;99.90;;;;;;8372348;28;20228;-73
2023/03/05 15:10:24;;;;;;;1.13;1.00;;;3.50;99.90;;;;;;8371913;28;20180;-73
2023/03/05 15:14:26;;;;;;;1.80;0.70;;;3.50;99.90;;;;;;8365446;28;20605;-71
2023/03/05 15:18:27;;;;;;;1.20;0.80;;;3.50;99.90;;;;;;8367896;28;20225;-71
2023/03/05 15:22:28;;;;;;;2.27;0.80;;;3.40;99.90;;;;;;8362698;28;20217;-71
2023/03/05 15:26:29;;;;;;;1.57;1.00;;;3.20;99.90;;;;;;8374589;28;20237;-72
2023/03/05 15:30:36;;;;;;;1.80;0.70;;;3.20;99.90;;;;;;8365159;28;20186;-72
2023/03/05 15:34:37;;;;;;;2.03;0.87;;;3.10;99.90;;;;;;8351329;28;20283;-72
2023/03/05 15:38:40;;;;;;;2.03;0.90;;;3.00;99.90;;;;;;8365936;28;20196;-71
2023/03/05 15:42:41;;;;;;;2.13;1.13;;;2.90;99.90;;;;;;8367505;28;20431;-73
2023/03/05 15:46:42;;;;;;;3.80;2.03;;;2.90;99.90;;;;;;8368246;28;20609;-73
2023/03/05 15:50:43;;;;;;;7.57;2.20;;;2.70;99.90;;;;;;8364718;28;20177;-68
2023/03/05 15:54:44;;;;;;;5.40;2.83;;;2.60;99.90;;;;;;8362286;28;20281;-68
2023/03/05 15:58:47;;;;;;;3.10;1.80;;;2.40;99.90;;;;;;8367266;28;20304;-69
2023/03/05 16:02:48;;;;;;;4.93;2.83;;;2.10;99.90;;;;;;8367173;28;20189;-68
2023/03/05 16:06:49;;;;;;;6.63;2.27;;;1.80;99.90;;;;;;8370906;28;20260;-69
2023/03/05 16:10:51;;;;;;;4.43;2.33;;;1.60;1.00;;;;;;8363080;28;20221;-68
2023/03/05 16:14:51;;;;;;;4.17;2.37;;;1.50;1.00;;;;;;8373709;28;20272;-68
2023/03/05 16:18:53;;;;;;;3.33;2.00;;;1.40;1.00;;;;;;8358353;28;20201;-68
2023/03/05 16:22:55;;;;;;;5.83;3.40;;;1.30;1.00;;;;;;8369473;28;20181;-68
2023/03/05 16:26:56;;;;;;;7.43;3.73;;;1.20;1.00;;;;;;8369862;28;20233;-68
2023/03/05 16:30:57;;;;;;;6.13;3.30;;;1.10;93.00;;;;;;8366861;28;20185;-69
2023/03/05 16:34:58;;;;;;;16.63;7.47;;;1.00;99.90;;;;;;8360935;28;20212;-68
2023/03/05 16:38:59;;;;;;;14.40;7.53;;;0.90;99.90;;;;;;8363620;28;20403;-69
2023/03/05 16:43:00;;;;;;;9.83;4.73;;;0.90;99.90;;;;;;8366953;28;20205;-69
2023/03/05 16:47:01;;;;;;;5.23;3.30;;;0.80;1.00;;;;;;8371380;28;20550;-69
2023/03/05 16:51:03;;;;;;;9.30;4.00;;;0.70;4.30;;;;;;8361138;28;20185;-69
2023/03/05 16:55:05;;;;;;;5.10;2.60;;;0.60;99.90;;;;;;8362984;28;20212;-69
2023/03/05 16:59:06;;;;;;;6.43;3.40;;;0.50;1.00;;;;;;8363506;28;20200;-69
2023/03/05 17:03:07;;;;;;;5.07;3.27;;;0.40;99.90;;;;;;8365690;28;20177;-70
2023/03/05 17:07:09;;;;;;;6.03;3.57;;;0.30;99.90;;;;;;8364140;28;20193;-69
2023/03/05 17:11:11;;;;;;;5.33;2.40;;;0.20;18.50;;;;;;8366575;28;20180;-64
2023/03/05 17:15:12;;;;;;;4.57;2.60;;;0.20;1.00;;;;;;8360048;28;20213;-64
2023/03/05 17:19:14;;;;;;;6.10;2.20;;;0.10;99.90;;;;;;8364387;28;20188;-64
2023/03/05 17:23:15;;;;;;;5.20;1.80;;;0.10;99.90;;;;;;8363433;28;20183;-64
2023/03/05 17:27:17;;;;;;;3.07;1.33;;;0.10;99.90;;;;;;8360938;28;20181;-64
2023/03/05 17:31:19;;;;;;;2.57;1.50;;;0.20;1.00;;;;;;8361283;28;20184;-64
2023/03/05 17:35:21;;;;;;;2.57;1.30;;;0.20;99.90;;;;;;8361317;28;20769;-64
2023/03/05 17:39:22;;;;;;;3.07;1.67;;;0.20;99.90;;;;;;8361411;28;20185;-64
2023/03/05 17:43:23;;;;;;;3.83;1.47;;;0.20;99.90;;;;;;8359603;28;20226;-64
2023/03/05 17:47:31;;;;;;;3.63;1.73;;;0.10;99.90;;;;;;8361550;28;20205;-64
2023/03/05 17:51:32;;;;;;;3.67;1.67;;;0.10;1.00;;;;;;8360549;28;20189;-64
2023/03/05 17:55:33;;;;;;;3.17;1.70;;;0.10;99.90;;;;;;8361380;28;20316;-65
2023/03/05 17:59:34;;;;;;;5.50;1.83;;;0.00;99.90;;;;;;8362822;28;20190;-64
2023/03/05 18:03:35;;;;;;;3.40;1.73;;;0.00;1.00;;;;;;8364192;28;20217;-64
2023/03/05 18:07:38;;;;;;;4.17;1.70;;;0.00;6.20;;;;;;8363688;28;20177;-65
2023/03/05 18:11:39;;;;;;;5.57;2.23;;;-0.10;99.90;;;;;;8358465;28;20194;-65
2023/03/05 18:15:46;;;;;;;3.07;2.03;;;0.00;99.90;;;;;;8359225;28;20189;-64
2023/03/05 18:19:47;;;;;;;2.87;1.80;;;0.00;99.90;;;;;;8361243;28;20219;-65
2023/03/05 18:23:48;;;;;;;3.87;2.00;;;0.00;99.90;;;;;;8364073;28;20209;-65
2023/03/05 18:27:50;;;;;;;4.60;1.60;;;-0.10;99.90;;;;;;8357885;28;20301;-65
2023/03/05 18:31:50;;;;;;;2.53;1.77;;;-0.10;95.10;;;;;;8359859;28;20188;-64
2023/03/05 18:35:52;;;;;;;6.37;2.50;;;-0.20;56.50;;;;;;8356270;28;20209;-64
2023/03/05 18:39:52;;;;;;;4.50;2.13;;;-0.10;62.10;;;;;;8369354;28;20201;-64
2023/03/05 18:43:54;;;;;;;5.33;2.20;;;-0.20;1.00;;;;;;8366559;28;20221;-64
2023/03/05 18:47:55;;;;;;;2.43;1.73;;;-0.30;99.90;;;;;;8365825;28;20305;-65
2023/03/05 18:51:56;;;;;;;3.67;2.20;;;-0.30;99.90;;;;;;8371809;28;20178;-65
2023/03/05 18:55:57;;;;;;;5.97;2.63;;;-0.30;99.90;;;;;;8365428;28;20186;-64
2023/03/05 18:59:58;;;;;;;4.57;2.53;;;-0.20;99.90;;;;;;8369340;28;20185;-64
2023/03/05 19:03:59;;;;;;;6.73;2.70;;;-0.20;99.90;;;;;;8365237;28;20305;-64
2023/03/05 19:08:01;;;;;;;7.43;2.63;;;-0.10;99.90;;;;;;8365966;28;20185;-65
2023/03/05 19:12:03;;;;;;;3.40;2.17;;;-0.10;29.60;;;;;;8364525;28;20197;-65
2023/03/05 19:16:09;;;;;;;6.30;2.80;;;-0.10;99.90;;;;;;8373300;28;20225;-64
2023/03/05 19:20:11;;;;;;;3.00;2.40;;;-0.10;48.90;;;;;;8365838;28;20240;-64
2023/03/05 19:24:13;;;;;;;5.40;2.37;;;-0.20;99.90;;;;;;8365212;28;20229;-64
2023/03/05 19:28:14;;;;;;;6.97;3.33;;;-0.20;99.90;;;;;;8363511;28;20528;-65
2023/03/05 19:32:16;;;;;;;5.20;3.17;;;-0.20;99.90;;;;;;8366690;28;20181;-65
2023/03/05 19:36:17;;;;;;;8.07;2.97;;;-0.20;99.90;;;;;;8379939;28;20213;-64
2023/03/05 19:40:18;;;;;;;8.67;4.10;;;-0.20;99.90;;;;;;8369530;28;20182;-65
2023/03/05 19:44:19;;;;;;;5.33;3.03;;;-0.10;99.90;;;;;;8360870;28;20213;-64
2023/03/05 19:48:20;;;;;;;5.13;3.80;;;-0.20;99.90;;;;;;8366421;28;20178;-64
2023/03/05 19:52:21;;;;;;;6.00;3.07;;;-0.10;1.00;;;;;;8364681;28;20185;-64
2023/03/05 19:56:22;;;;;;;3.83;2.63;;;-0.10;1.00;;;;;;8365200;28;20608;-64
2023/03/05 20:00:27;;;;;;;6.40;3.30;;;0.00;22.50;;;;;;8364979;28;20204;-64
2023/03/05 20:04:28;;;;;;;3.67;2.93;;;0.00;1.00;;;;;;8365367;28;20219;-64
2023/03/05 20:08:29;;;;;;;7.53;3.00;;;0.00;1.00;;;;;;8368494;28;20219;-64
2023/03/05 20:12:30;;;;;;;8.17;3.87;;;0.00;99.90;;;;;;8363939;28;20187;-62
2023/03/05 20:16:34;;;;;;;5.43;3.80;;;0.00;99.90;;;;;;8361812;28;20197;-63
2023/03/05 20:20:34;;;;;;;5.77;3.17;;;0.00;99.90;;;;;;8364305;28;20597;-64
2023/03/05 20:24:36;;;;;;;6.20;3.50;;;0.00;1.00;;;;;;8366349;28;20213;-64
2023/03/05 20:28:37;;;;;;;5.53;3.67;;;-0.10;1.00;;;;;;8363762;28;20229;-64
2023/03/05 20:32:39;;;;;;;5.20;3.60;;;-0.10;37.10;;;;;;8366340;28;20247;-64
2023/03/05 20:36:40;;;;;;;5.03;3.80;;;-0.10;99.90;;;;;;8370251;28;20210;-65
2023/03/05 20:40:41;;;;;;;6.10;3.73;;;-0.10;1.00;;;;;;8363578;28;20200;-64
2023/03/05 20:44:43;;;;;;;5.67;3.20;;;-0.10;1.00;;;;;;8362414;28;20472;-65
2023/03/05 20:48:48;;;;;;;4.50;3.60;;;-0.10;99.90;;;;;;8363693;28;20224;-64
2023/03/05 20:52:48;;;;;;;5.33;3.60;;;-0.10;99.90;;;;;;8364041;28;20432;-64
2023/03/05 20:56:49;;;;;;;5.73;3.47;;;-0.10;99.90;;;;;;8369636;28;20205;-64
2023/03/05 21:00:50;;;;;;;6.23;3.30;;;-0.10;99.90;;;;;;8365275;28;20185;-64
2023/03/05 21:04:52;;;;;;;4.20;2.63;;;-0.10;99.90;;;;;;8364770;28;20259;-65
2023/03/05 21:08:53;;;;;;;5.47;3.40;;;-0.10;99.90;;;;;;8365842;28;20169;-63
2023/03/05 21:12:55;;;;;;;8.77;3.13;;;-0.10;99.90;;;;;;8364143;28;20185;-63
2023/03/05 21:16:57;;;;;;;4.33;3.17;;;0.00;99.90;;;;;;8363068;28;20186;-65
2023/03/05 21:20:58;;;;;;;5.50;2.80;;;0.00;99.90;;;;;;8365526;28;20242;-67
2023/03/05 21:25:19;;;;;;;3.90;2.63;;;0.00;73.00;;;;;;8364078;28;20297;-64